Time;durP1;ratioP1;P1;durP2;ratioP2;P2;SDS_P1;SDS_P2;PMS_P1;PMS_P2;Temp;Humidity;BMP_temperature;BMP_pressure;BME280_temperature;BME280_humidity;BME280_pressure;Samples;Min_cycle;Max_cycle;Signal;HPM_P1;HPM_P2
2023/01/22 00:00:04;;;;;;;39.47;24.17;;;-1.00;99.90;;;;;;5053574;28;20106;-54
2023/01/22 00:02:37;;;;;;;35.50;23.35;;;-1.00;99.90;;;;;;5052840;28;20049;-55
2023/01/22 00:05:04;;;;;;;35.70;22.13;;;-1.00;99.90;;;;;;5053398;28;20076;-51
2023/01/22 00:07:31;;;;;;;39.75;23.75;;;-1.00;99.90;;;;;;5052755;28;20532;-52
2023/01/22 00:09:58;;;;;;;39.78;22.98;;;-1.00;99.90;;;;;;5053535;28;20041;-52
2023/01/22 00:12:25;;;;;;;40.10;23.60;;;-1.00;99.90;;;;;;5064566;28;20041;-57
2023/01/22 00:14:52;;;;;;;41.10;23.48;;;-1.10;99.90;;;;;;5072493;28;20048;-51
2023/01/22 00:17:19;;;;;;;44.00;24.20;;;-1.10;99.90;;;;;;5063163;28;20037;-55
2023/01/22 00:19:45;;;;;;;38.85;22.80;;;-1.10;99.90;;;;;;5053210;28;20045;-51
2023/01/22 00:22:12;;;;;;;38.33;23.05;;;-1.10;99.90;;;;;;5053259;28;20114;-53
2023/01/22 00:24:39;;;;;;;42.15;23.50;;;-1.10;99.90;;;;;;5052714;28;20049;-55
2023/01/22 00:27:06;;;;;;;35.75;23.35;;;-1.00;99.90;;;;;;5053331;28;20044;-50
2023/01/22 00:29:33;;;;;;;45.00;24.75;;;-1.00;99.90;;;;;;5052641;28;20166;-48
2023/01/22 00:32:00;;;;;;;41.20;23.65;;;-1.10;99.90;;;;;;5055172;28;20040;-49
2023/01/22 00:34:27;;;;;;;42.60;23.30;;;-1.10;99.90;;;;;;5057057;28;20037;-56
2023/01/22 00:36:56;;;;;;;42.45;24.38;;;-1.10;99.90;;;;;;5056350;28;20373;-54
2023/01/22 00:39:23;;;;;;;41.22;22.90;;;-1.20;99.90;;;;;;5056082;28;20381;-54
2023/01/22 00:41:50;;;;;;;38.22;22.85;;;-1.20;99.90;;;;;;5055861;28;20045;-48
2023/01/22 00:44:17;;;;;;;37.70;22.02;;;-1.20;99.90;;;;;;5066983;28;20037;-49
2023/01/22 00:46:44;;;;;;;36.00;22.63;;;-1.20;99.90;;;;;;5072557;28;20036;-48
2023/01/22 00:49:10;;;;;;;39.85;22.90;;;-1.20;99.90;;;;;;5054989;28;20083;-47
2023/01/22 00:51:38;;;;;;;39.80;22.10;;;-1.20;99.90;;;;;;5055108;28;20045;-48
2023/01/22 00:54:05;;;;;;;35.60;21.40;;;-1.20;99.90;;;;;;5057024;28;20051;-51
2023/01/22 00:56:32;;;;;;;33.80;21.48;;;-1.20;99.90;;;;;;5056018;28;20048;-50
2023/01/22 00:58:58;;;;;;;41.85;23.85;;;-1.20;99.90;;;;;;5056786;28;20037;-51
2023/01/22 01:01:25;;;;;;;38.05;22.23;;;-1.20;99.90;;;;;;5056902;28;20064;-51
2023/01/22 01:03:52;;;;;;;35.33;22.23;;;-1.20;99.90;;;;;;5055977;28;20128;-49
2023/01/22 01:06:19;;;;;;;40.17;22.80;;;-1.20;99.90;;;;;;5056536;28;20044;-51
2023/01/22 01:08:46;;;;;;;40.33;23.25;;;-1.20;99.90;;;;;;5055223;28;20044;-52
2023/01/22 01:11:12;;;;;;;43.22;23.30;;;-1.30;99.90;;;;;;5056551;28;20041;-51
2023/01/22 01:13:41;;;;;;;42.65;24.30;;;-1.20;99.90;;;;;;5055121;28;20107;-47
2023/01/22 01:16:08;;;;;;;41.22;24.27;;;-1.30;99.90;;;;;;5056443;28;20094;-48
2023/01/22 01:18:35;;;;;;;40.13;23.05;;;-1.30;99.90;;;;;;5055796;28;20124;-51
2023/01/22 01:21:03;;;;;;;40.65;23.63;;;-1.30;99.90;;;;;;5055174;28;20045;-46
2023/01/22 01:23:30;;;;;;;40.65;24.48;;;-1.30;99.90;;;;;;5056390;28;20056;-47
2023/01/22 01:25:58;;;;;;;39.83;22.92;;;-1.30;99.90;;;;;;5056512;28;20396;-50
2023/01/22 01:28:25;;;;;;;36.33;21.88;;;-1.30;99.90;;;;;;5054838;28;20045;-50
2023/01/22 01:30:51;;;;;;;37.97;22.65;;;-1.30;99.90;;;;;;5056195;28;20037;-51
2023/01/22 01:33:19;;;;;;;33.85;20.85;;;-1.40;99.90;;;;;;5054847;28;20526;-51
2023/01/22 01:35:45;;;;;;;31.85;20.85;;;-1.40;99.90;;;;;;5054861;28;20037;-51
2023/01/22 01:38:12;;;;;;;35.25;20.75;;;-1.30;99.90;;;;;;5056177;28;20546;-46
2023/01/22 01:40:40;;;;;;;33.67;20.02;;;-1.40;99.90;;;;;;5056131;28;20077;-50
2023/01/22 01:43:07;;;;;;;31.92;20.70;;;-1.40;99.90;;;;;;5055272;28;20064;-52
2023/01/22 01:45:34;;;;;;;39.50;21.27;;;-1.40;99.90;;;;;;5055888;28;20049;-52
2023/01/22 01:48:00;;;;;;;30.50;19.88;;;-1.40;99.90;;;;;;5065210;28;20041;-49
2023/01/22 01:50:27;;;;;;;32.38;21.05;;;-1.40;99.90;;;;;;5074888;28;20110;-52
2023/01/22 01:52:54;;;;;;;33.75;21.45;;;-1.40;99.90;;;;;;5074990;28;20045;-54
2023/01/22 01:55:21;;;;;;;36.75;20.70;;;-1.50;99.90;;;;;;5059810;28;20128;-50
2023/01/22 01:57:48;;;;;;;34.60;22.35;;;-1.50;99.90;;;;;;5055559;28;20067;-52
2023/01/22 02:00:15;;;;;;;32.08;20.80;;;-1.50;99.90;;;;;;5055159;28;20444;-49
2023/01/22 02:02:43;;;;;;;33.58;20.95;;;-1.40;99.90;;;;;;5055568;28;20147;-54
2023/01/22 02:05:10;;;;;;;32.40;20.75;;;-1.40;99.90;;;;;;5055474;28;20068;-53
2023/01/22 02:07:36;;;;;;;34.80;20.58;;;-1.50;99.90;;;;;;5053380;28;20048;-50
2023/01/22 02:10:05;;;;;;;36.75;21.70;;;-1.50;99.90;;;;;;5054145;28;20037;-52
2023/01/22 02:12:32;;;;;;;32.38;22.13;;;-1.50;99.90;;;;;;5055608;28;20063;-48
2023/01/22 02:15:02;;;;;;;36.88;22.02;;;-1.60;99.90;;;;;;5053277;28;20110;-52
2023/01/22 02:17:29;;;;;;;35.67;22.15;;;-1.60;99.90;;;;;;5055219;28;20078;-50
2023/01/22 02:19:56;;;;;;;35.53;22.45;;;-1.60;99.90;;;;;;5055174;28;20112;-52
2023/01/22 02:22:22;;;;;;;36.17;22.75;;;-1.60;99.90;;;;;;5053193;28;20076;-54
2023/01/22 02:24:49;;;;;;;35.63;22.92;;;-1.60;99.90;;;;;;5053789;28;20484;-51
2023/01/22 02:27:17;;;;;;;36.78;22.58;;;-1.60;99.90;;;;;;5053352;28;20479;-49
2023/01/22 02:29:45;;;;;;;36.03;22.13;;;-1.70;99.90;;;;;;5054093;28;20136;-49
2023/01/22 02:32:12;;;;;;;34.83;20.70;;;-1.70;99.90;;;;;;5053935;28;20045;-49
2023/01/22 02:34:38;;;;;;;37.35;22.88;;;-1.70;99.90;;;;;;5054430;28;20484;-52
2023/01/22 02:37:05;;;;;;;38.38;22.02;;;-1.60;99.90;;;;;;5053647;28;20399;-56
2023/01/22 02:39:32;;;;;;;34.92;22.55;;;-1.70;99.90;;;;;;5054334;28;20510;-49
2023/01/22 02:42:01;;;;;;;36.92;22.35;;;-1.70;99.90;;;;;;5053759;28;20053;-52
2023/01/22 02:44:28;;;;;;;39.88;22.48;;;-1.70;99.90;;;;;;5053633;28;20064;-51
2023/01/22 02:46:55;;;;;;;32.25;21.75;;;-1.70;99.90;;;;;;5053270;28;20045;-50
2023/01/22 02:49:21;;;;;;;34.70;21.80;;;-1.80;99.90;;;;;;5054784;28;20036;-46
2023/01/22 02:51:49;;;;;;;37.55;22.85;;;-1.80;99.90;;;;;;5052522;28;20503;-48
2023/01/22 02:54:16;;;;;;;37.80;22.83;;;-1.80;99.90;;;;;;5052519;28;20476;-48
2023/01/22 02:56:43;;;;;;;35.08;22.27;;;-1.80;99.90;;;;;;5054485;28;20391;-49
2023/01/22 02:59:10;;;;;;;38.13;22.75;;;-1.80;99.90;;;;;;5054185;28;20113;-50
2023/01/22 03:01:37;;;;;;;38.50;22.55;;;-1.80;99.90;;;;;;5055397;28;20048;-48
2023/01/22 03:04:09;;;;;;;39.20;22.65;;;-1.80;99.90;;;;;;5068287;28;20079;-50
2023/01/22 03:06:36;;;;;;;37.75;23.48;;;-1.80;99.90;;;;;;5054215;28;20438;-52
2023/01/22 03:09:03;;;;;;;35.72;22.20;;;-1.80;99.90;;;;;;5052933;28;20068;-50
2023/01/22 03:11:34;;;;;;;35.10;22.80;;;-1.80;99.90;;;;;;5052938;28;20056;-51
2023/01/22 03:22:22;;;;;;;36.58;22.33;;;-1.80;99.90;;;;;;5052619;28;20078;-47
2023/01/22 03:24:52;;;;;;;38.92;24.27;;;-1.90;99.90;;;;;;5052816;28;20132;-47
2023/01/22 03:27:22;;;;;;;37.92;22.42;;;-1.90;99.90;;;;;;5052491;28;20098;-49
2023/01/22 03:29:48;;;;;;;38.90;22.60;;;-1.80;99.90;;;;;;5052994;28;20431;-49
2023/01/22 03:32:17;;;;;;;36.15;21.13;;;-1.90;99.90;;;;;;5052501;28;20153;-49
2023/01/22 03:34:44;;;;;;;33.30;20.15;;;-1.90;99.90;;;;;;5052782;28;20037;-46
2023/01/22 03:37:11;;;;;;;34.67;21.23;;;-1.90;99.90;;;;;;5052660;28;20048;-49
2023/01/22 03:39:40;;;;;;;32.17;21.02;;;-1.90;99.90;;;;;;5052027;28;20073;-52
2023/01/22 03:42:09;;;;;;;34.22;20.33;;;-1.90;99.90;;;;;;5052610;28;20052;-47
2023/01/22 03:44:36;;;;;;;34.38;21.90;;;-2.00;99.90;;;;;;5051720;28;20167;-49
2023/01/22 03:47:03;;;;;;;35.40;21.45;;;-2.00;99.90;;;;;;5052502;28;20053;-52
2023/01/22 03:49:30;;;;;;;37.92;21.10;;;-2.00;99.90;;;;;;5052362;28;20140;-50
2023/01/22 03:51:57;;;;;;;30.15;19.55;;;-2.00;99.90;;;;;;5052212;28;20557;-52
2023/01/22 03:54:24;;;;;;;33.60;21.60;;;-2.00;99.90;;;;;;5052211;28;20033;-49
2023/01/22 03:56:55;;;;;;;32.90;20.45;;;-1.90;99.90;;;;;;5051942;28;20045;-50
2023/01/22 03:59:28;;;;;;;34.47;20.38;;;-2.00;99.90;;;;;;5052250;28;20056;-51
2023/01/22 04:01:55;;;;;;;33.38;20.63;;;-2.00;99.90;;;;;;5071641;28;20101;-50
2023/01/22 04:04:21;;;;;;;38.30;20.45;;;-2.00;99.90;;;;;;5052217;28;20568;-54
2023/01/22 04:06:49;;;;;;;34.30;20.42;;;-2.00;99.90;;;;;;5070732;28;20090;-51
2023/01/22 04:09:15;;;;;;;32.00;20.67;;;-2.00;99.90;;;;;;5071355;28;20055;-49
2023/01/22 04:11:46;;;;;;;29.13;18.98;;;-2.00;99.90;;;;;;5072729;28;20044;-55
2023/01/22 04:14:14;;;;;;;37.38;20.95;;;-2.10;99.90;;;;;;5051676;28;20049;-54
2023/01/22 04:16:53;;;;;;;39.90;21.90;;;-2.10;99.90;;;;;;5052449;28;20041;-56
2023/01/22 04:19:59;;;;;;;31.52;19.73;;;-2.10;99.90;;;;;;5011116;28;20050;-54
2023/01/22 04:22:41;;;;;;;32.55;19.80;;;-2.10;99.90;;;;;;4993981;28;20128;-55
2023/01/22 04:25:10;;;;;;;36.00;19.80;;;-2.10;99.90;;;;;;5035443;28;20045;-55
2023/01/22 04:27:37;;;;;;;36.53;21.05;;;-2.10;99.90;;;;;;5051024;28;20049;-55
2023/01/22 04:30:04;;;;;;;32.40;19.63;;;-2.10;99.90;;;;;;5052201;28;20439;-56
2023/01/22 04:32:31;;;;;;;34.03;20.85;;;-2.10;99.90;;;;;;5051745;28;20068;-54
2023/01/22 04:35:10;;;;;;;34.40;19.90;;;-2.10;99.90;;;;;;5052108;28;20045;-56
2023/01/22 04:37:44;;;;;;;40.45;21.35;;;-2.20;99.90;;;;;;5051853;28;20045;-49
2023/01/22 04:40:11;;;;;;;35.90;20.83;;;-2.20;99.90;;;;;;5051973;28;20140;-51
2023/01/22 04:42:37;;;;;;;31.92;19.52;;;-2.20;99.90;;;;;;5051453;28;20040;-49
2023/01/22 04:45:04;;;;;;;34.45;20.17;;;-2.10;99.90;;;;;;5051815;28;20045;-50
2023/01/22 04:47:32;;;;;;;31.05;19.05;;;-2.20;99.90;;;;;;5051902;28;20051;-50
2023/01/22 04:49:59;;;;;;;33.20;20.00;;;-2.20;99.90;;;;;;5052923;28;20128;-52
2023/01/22 04:52:25;;;;;;;34.92;20.02;;;-2.20;99.90;;;;;;5051554;28;20060;-51
2023/01/22 04:54:52;;;;;;;33.95;19.10;;;-2.20;99.90;;;;;;5051895;28;20045;-52
2023/01/22 04:57:20;;;;;;;33.10;19.83;;;-2.20;99.90;;;;;;5050936;28;20057;-49
2023/01/22 04:59:49;;;;;;;33.92;19.75;;;-2.20;99.90;;;;;;5051834;28;20045;-49
2023/01/22 05:02:15;;;;;;;31.67;18.88;;;-2.20;99.90;;;;;;5051744;28;20044;-52
2023/01/22 05:04:42;;;;;;;29.58;18.27;;;-2.30;99.90;;;;;;5051210;28;20459;-52
2023/01/22 05:07:09;;;;;;;42.92;19.23;;;-2.20;99.90;;;;;;5051574;28;20072;-50
2023/01/22 05:09:36;;;;;;;32.97;19.90;;;-2.20;99.90;;;;;;5051417;28;20041;-53
2023/01/22 05:12:03;;;;;;;30.92;19.15;;;-2.20;99.90;;;;;;5051369;28;20512;-53
2023/01/22 05:14:37;;;;;;;31.73;19.85;;;-2.30;99.90;;;;;;5051421;28;20053;-51
2023/01/22 05:17:04;;;;;;;33.80;20.80;;;-2.30;99.90;;;;;;5051545;28;20064;-52
2023/01/22 05:19:31;;;;;;;31.27;20.33;;;-2.30;99.90;;;;;;5054672;28;20037;-51
2023/01/22 05:21:58;;;;;;;32.42;19.60;;;-2.30;99.90;;;;;;5054957;28;20131;-51
2023/01/22 05:24:24;;;;;;;31.17;19.90;;;-2.20;99.90;;;;;;5055099;28;20366;-52
2023/01/22 05:26:52;;;;;;;32.95;20.40;;;-2.30;99.90;;;;;;5054747;28;20496;-57
2023/01/22 05:29:26;;;;;;;33.10;19.42;;;-2.30;99.90;;;;;;5054970;28;20110;-50
2023/01/22 05:32:03;;;;;;;30.83;19.65;;;-2.30;99.90;;;;;;5054943;28;20412;-49
2023/01/22 05:34:39;;;;;;;29.83;18.08;;;-2.30;99.90;;;;;;5054074;28;20051;-52
2023/01/22 05:37:07;;;;;;;33.00;19.33;;;-2.20;99.90;;;;;;5054651;28;20064;-51
2023/01/22 05:39:34;;;;;;;33.25;19.35;;;-2.30;99.90;;;;;;5054669;28;20085;-52
2023/01/22 05:42:04;;;;;;;31.60;18.17;;;-2.20;99.90;;;;;;5054592;28;20496;-49
2023/01/22 05:44:32;;;;;;;31.60;19.52;;;-2.20;99.90;;;;;;5054088;28;20484;-52
2023/01/22 05:47:00;;;;;;;29.73;18.38;;;-2.20;99.90;;;;;;5054440;28;20064;-52
2023/01/22 05:49:32;;;;;;;29.58;17.60;;;-2.30;99.90;;;;;;5054060;28;20050;-46
2023/01/22 05:51:59;;;;;;;31.38;18.38;;;-2.20;99.90;;;;;;5054562;28;20404;-51
2023/01/22 05:54:26;;;;;;;35.13;19.92;;;-2.20;99.90;;;;;;5054601;28;20041;-49
2023/01/22 05:56:54;;;;;;;34.40;18.95;;;-2.30;99.90;;;;;;5054111;28;20405;-49
2023/01/22 05:59:22;;;;;;;33.20;19.10;;;-2.30;99.90;;;;;;5054236;28;20099;-55
2023/01/22 06:01:56;;;;;;;36.95;19.00;;;-2.30;99.90;;;;;;5054219;28;20072;-51
2023/01/22 06:04:22;;;;;;;36.05;19.50;;;-2.30;99.90;;;;;;5053442;28;20500;-50
2023/01/22 06:06:49;;;;;;;37.10;19.75;;;-2.30;99.90;;;;;;5037501;28;20041;-46
2023/01/22 06:09:19;;;;;;;32.22;19.73;;;-2.30;99.90;;;;;;5054115;28;20057;-51
2023/01/22 06:11:46;;;;;;;37.00;20.98;;;-2.40;99.90;;;;;;5069977;28;20045;-50
2023/01/22 06:14:13;;;;;;;41.90;21.25;;;-2.40;99.90;;;;;;5053717;28;20060;-52
2023/01/22 06:16:42;;;;;;;36.22;20.17;;;-2.40;99.90;;;;;;5053201;28;20492;-54
2023/01/22 06:19:23;;;;;;;35.97;19.75;;;-2.40;99.90;;;;;;5054237;28;20432;-53
2023/01/22 06:21:52;;;;;;;37.90;20.17;;;-2.40;99.90;;;;;;5053908;28;20504;-49
2023/01/22 06:24:25;;;;;;;32.63;19.27;;;-2.50;99.90;;;;;;5053762;28;20167;-49
2023/01/22 06:26:52;;;;;;;35.20;20.40;;;-2.50;99.90;;;;;;5055052;28;20040;-50
2023/01/22 06:29:24;;;;;;;31.65;18.92;;;-2.50;99.90;;;;;;5053811;28;20056;-52
2023/01/22 06:31:53;;;;;;;32.92;19.63;;;-2.50;99.90;;;;;;5052970;28;20037;-53
2023/01/22 06:34:20;;;;;;;33.45;19.17;;;-2.50;99.90;;;;;;5053677;28;20091;-51
2023/01/22 06:36:46;;;;;;;38.10;21.10;;;-2.50;99.90;;;;;;5053360;28;20458;-50
2023/01/22 06:39:13;;;;;;;38.75;20.60;;;-2.50;99.90;;;;;;5053550;28;20095;-52
2023/01/22 06:41:55;;;;;;;33.95;20.35;;;-2.50;99.90;;;;;;5053715;28;20051;-49
2023/01/22 06:44:22;;;;;;;34.17;20.20;;;-2.60;99.90;;;;;;5053605;28;20057;-48
2023/01/22 06:46:51;;;;;;;35.25;20.67;;;-2.60;99.90;;;;;;5052777;28;20135;-48
2023/01/22 06:49:24;;;;;;;32.63;19.67;;;-2.60;99.90;;;;;;5053398;28;20048;-50
2023/01/22 06:51:51;;;;;;;32.97;19.15;;;-2.60;99.90;;;;;;5053282;28;20045;-47
2023/01/22 06:54:17;;;;;;;33.17;20.05;;;-2.60;99.90;;;;;;5053545;28;20467;-47
2023/01/22 06:56:44;;;;;;;34.85;20.33;;;-2.60;99.90;;;;;;5053195;28;20040;-50
2023/01/22 06:59:12;;;;;;;33.53;20.77;;;-2.60;99.90;;;;;;5052493;28;20045;-48
2023/01/22 07:01:40;;;;;;;36.95;20.13;;;-2.60;99.90;;;;;;5054692;28;20492;-51
2023/01/22 07:04:07;;;;;;;32.80;19.77;;;-2.60;99.90;;;;;;5053663;28;20048;-51
2023/01/22 07:06:34;;;;;;;29.00;18.65;;;-2.60;99.90;;;;;;5054349;28;20124;-54
2023/01/22 07:09:01;;;;;;;37.13;21.38;;;-2.60;99.90;;;;;;5054568;28;20041;-48
2023/01/22 07:11:28;;;;;;;36.95;21.45;;;-2.70;99.90;;;;;;5053423;28;20488;-47
2023/01/22 07:13:54;;;;;;;34.92;21.88;;;-2.70;99.90;;;;;;5054331;28;20055;-51
2023/01/22 07:16:21;;;;;;;35.88;20.80;;;-2.70;99.90;;;;;;5052931;28;20045;-50
2023/01/22 07:18:48;;;;;;;38.30;21.48;;;-2.70;99.90;;;;;;5054388;28;20045;-52
2023/01/22 07:21:15;;;;;;;36.08;21.02;;;-2.70;99.90;;;;;;5054130;28;20045;-50
2023/01/22 07:23:41;;;;;;;41.03;21.83;;;-2.70;99.90;;;;;;5054229;28;20040;-46
2023/01/22 07:26:08;;;;;;;39.80;21.92;;;-2.70;99.90;;;;;;5054109;28;21156;-50
2023/01/22 07:28:35;;;;;;;38.72;22.17;;;-2.70;99.90;;;;;;5054033;28;20095;-50
2023/01/22 07:31:02;;;;;;;39.78;21.70;;;-2.70;99.90;;;;;;5053879;28;20523;-50
2023/01/22 07:33:29;;;;;;;39.83;22.38;;;-2.80;99.90;;;;;;5053890;28;20480;-46
2023/01/22 07:35:56;;;;;;;38.58;21.60;;;-2.70;99.90;;;;;;5054016;28;20080;-46
2023/01/22 07:38:22;;;;;;;40.00;21.92;;;-2.70;99.90;;;;;;5054017;28;20037;-46
2023/01/22 07:40:49;;;;;;;41.00;22.00;;;-2.70;99.90;;;;;;5052754;28;20167;-46
2023/01/22 07:43:16;;;;;;;37.78;20.75;;;-2.70;99.90;;;;;;5053986;28;20091;-49
2023/01/22 07:45:43;;;;;;;42.10;22.55;;;-2.70;99.90;;;;;;5053320;28;20063;-47
2023/01/22 07:48:10;;;;;;;39.20;21.77;;;-2.70;99.90;;;;;;5054008;28;20079;-48
2023/01/22 07:50:38;;;;;;;38.75;21.92;;;-2.70;99.90;;;;;;5053446;28;20099;-49
2023/01/22 07:53:06;;;;;;;35.20;20.52;;;-2.70;99.90;;;;;;5053883;28;20068;-52
2023/01/22 07:55:32;;;;;;;34.45;21.27;;;-2.80;99.90;;;;;;5052335;28;20116;-51
2023/01/22 07:57:59;;;;;;;36.72;21.67;;;-2.80;99.90;;;;;;5052795;28;20066;-53
2023/01/22 08:00:26;;;;;;;35.38;21.00;;;-2.80;99.90;;;;;;5053598;28;20037;-53
2023/01/22 08:02:53;;;;;;;37.13;21.00;;;-2.80;99.90;;;;;;5052349;28;20041;-45
2023/01/22 08:05:20;;;;;;;38.95;22.70;;;-2.80;99.90;;;;;;5052878;28;20495;-48
2023/01/22 08:07:46;;;;;;;39.22;21.38;;;-2.80;99.90;;;;;;5052116;28;20491;-48
2023/01/22 08:10:14;;;;;;;35.70;22.52;;;-2.80;99.90;;;;;;5052438;28;20045;-47
2023/01/22 08:12:42;;;;;;;36.80;21.05;;;-2.80;99.90;;;;;;5059676;28;20044;-47
2023/01/22 08:15:12;;;;;;;34.83;21.63;;;-2.80;99.90;;;;;;5072589;28;20055;-49
2023/01/22 08:17:38;;;;;;;40.70;22.40;;;-2.70;99.90;;;;;;5072510;28;20484;-48
2023/01/22 08:20:05;;;;;;;43.75;22.35;;;-2.70;99.90;;;;;;5070815;28;20531;-51
2023/01/22 08:22:32;;;;;;;35.70;22.65;;;-2.70;99.90;;;;;;5053511;28;20048;-47
2023/01/22 08:24:59;;;;;;;40.50;22.92;;;-2.70;99.90;;;;;;5053403;28;20098;-47
2023/01/22 08:27:25;;;;;;;48.70;24.77;;;-2.70;99.90;;;;;;5052771;28;20061;-47
2023/01/22 08:29:52;;;;;;;45.30;25.00;;;-2.70;99.90;;;;;;5053410;28;20033;-52
2023/01/22 08:32:19;;;;;;;50.50;23.83;;;-2.70;99.90;;;;;;5046892;28;20530;-48
2023/01/22 08:34:46;;;;;;;43.33;25.17;;;-2.70;99.90;;;;;;5046521;28;20037;-50
2023/01/22 08:37:12;;;;;;;40.60;23.40;;;-2.70;99.90;;;;;;5052600;28;20041;-48
2023/01/22 08:39:39;;;;;;;38.08;24.05;;;-2.70;99.90;;;;;;5072402;28;20049;-52
2023/01/22 08:42:06;;;;;;;33.92;21.15;;;-2.70;99.90;;;;;;5072349;28;20106;-47
2023/01/22 08:44:33;;;;;;;34.28;22.02;;;-2.60;99.90;;;;;;5053471;28;20040;-48
2023/01/22 08:46:59;;;;;;;36.75;21.30;;;-2.70;99.90;;;;;;5052958;28;20067;-51
2023/01/22 08:49:26;;;;;;;36.15;22.08;;;-2.60;99.90;;;;;;5051650;28;20060;-47
2023/01/22 08:51:53;;;;;;;38.17;21.42;;;-2.60;99.90;;;;;;5050367;28;20041;-48
2023/01/22 08:54:20;;;;;;;39.58;22.52;;;-2.60;99.90;;;;;;5052455;28;20037;-51
2023/01/22 08:56:47;;;;;;;39.17;22.45;;;-2.60;99.90;;;;;;5048281;28;20052;-48
2023/01/22 08:59:13;;;;;;;35.35;20.40;;;-2.60;99.90;;;;;;5051299;28;20051;-52
2023/01/22 09:01:40;;;;;;;30.80;19.63;;;-2.50;99.90;;;;;;5051829;28;20135;-47
2023/01/22 09:04:07;;;;;;;33.50;19.65;;;-2.60;99.90;;;;;;5055404;28;20041;-53
2023/01/22 09:06:34;;;;;;;31.02;18.60;;;-2.50;99.90;;;;;;5056149;28;20041;-49
2023/01/22 09:09:00;;;;;;;35.33;20.17;;;-2.50;99.90;;;;;;5056658;28;20148;-46
2023/01/22 09:11:28;;;;;;;34.05;20.75;;;-2.40;99.90;;;;;;5056579;28;20064;-50
2023/01/22 09:13:55;;;;;;;41.83;20.95;;;-2.30;99.90;;;;;;5056341;28;20041;-48
2023/01/22 09:16:22;;;;;;;38.10;23.10;;;-2.30;99.90;;;;;;5058475;28;20049;-51
2023/01/22 09:18:49;;;;;;;31.05;19.70;;;-2.30;99.90;;;;;;5056778;28;20049;-48
2023/01/22 09:21:16;;;;;;;32.25;18.45;;;-2.20;99.90;;;;;;5056684;28;20045;-48
2023/01/22 09:23:42;;;;;;;28.48;16.52;;;-2.20;99.90;;;;;;5055597;28;20447;-51
2023/01/22 09:26:09;;;;;;;29.23;17.05;;;-2.20;99.90;;;;;;5056311;28;20166;-48
2023/01/22 09:28:36;;;;;;;28.02;16.27;;;-2.10;99.90;;;;;;5054675;28;20037;-53
2023/01/22 09:31:03;;;;;;;28.33;15.52;;;-2.10;99.90;;;;;;5056676;28;20550;-47
2023/01/22 09:33:29;;;;;;;30.92;17.60;;;-2.10;99.90;;;;;;5055463;28;20048;-52
2023/01/22 09:35:56;;;;;;;30.08;17.58;;;-2.00;99.90;;;;;;5065140;28;20053;-51
2023/01/22 09:38:23;;;;;;;28.75;17.17;;;-2.00;99.90;;;;;;5075270;28;20041;-49
2023/01/22 09:40:50;;;;;;;30.58;18.10;;;-1.90;99.90;;;;;;5075451;28;20041;-48
2023/01/22 09:43:17;;;;;;;28.70;18.67;;;-1.90;99.90;;;;;;5069361;28;20087;-51
2023/01/22 09:45:43;;;;;;;29.50;18.83;;;-1.90;99.90;;;;;;5056484;28;20045;-51
2023/01/22 09:48:10;;;;;;;42.38;23.58;;;-1.80;99.90;;;;;;5056339;28;20041;-49
2023/01/22 09:50:37;;;;;;;43.40;24.63;;;-1.80;99.90;;;;;;5055939;28;20052;-50
2023/01/22 09:53:04;;;;;;;40.85;24.73;;;-1.70;99.90;;;;;;5055465;28;20041;-50
2023/01/22 09:55:30;;;;;;;42.08;24.80;;;-1.70;99.90;;;;;;5054907;28;20079;-49
2023/01/22 09:57:57;;;;;;;36.70;23.40;;;-1.60;99.90;;;;;;5055199;28;20449;-52
2023/01/22 10:00:24;;;;;;;39.20;24.90;;;-1.50;99.90;;;;;;5055747;28;20041;-50
2023/01/22 10:02:51;;;;;;;42.88;27.15;;;-1.50;99.90;;;;;;5054950;28;20435;-51
2023/01/22 10:05:18;;;;;;;45.47;28.00;;;-1.40;99.90;;;;;;5051847;28;20096;-53
2023/01/22 10:07:45;;;;;;;43.13;26.48;;;-1.40;99.90;;;;;;5054894;28;20051;-51
2023/01/22 10:10:12;;;;;;;43.90;26.33;;;-1.30;99.90;;;;;;5055608;28;20092;-50
2023/01/22 10:12:38;;;;;;;43.03;27.23;;;-1.20;99.90;;;;;;5053938;28;20041;-50
2023/01/22 10:15:05;;;;;;;44.25;27.58;;;-1.20;99.90;;;;;;5074775;28;20123;-50
2023/01/22 10:17:32;;;;;;;40.30;27.02;;;-1.10;99.90;;;;;;5066692;28;20087;-52
2023/01/22 10:19:59;;;;;;;41.85;27.25;;;-1.00;99.90;;;;;;5055459;28;20048;-53
2023/01/22 10:22:25;;;;;;;43.65;27.00;;;-1.00;99.90;;;;;;5054718;28;20043;-49
2023/01/22 10:24:52;;;;;;;51.42;30.40;;;-0.90;99.90;;;;;;5055358;28;20041;-51
2023/01/22 10:27:19;;;;;;;49.58;30.50;;;-0.80;99.90;;;;;;5048078;28;20492;-50
2023/01/22 10:29:46;;;;;;;53.00;32.58;;;-0.80;99.90;;;;;;5048589;28;20045;-51
2023/01/22 10:32:12;;;;;;;48.08;32.15;;;-0.70;99.90;;;;;;5071046;28;20049;-49
2023/01/22 10:34:40;;;;;;;51.58;31.95;;;-0.70;99.90;;;;;;5074211;28;20361;-53
2023/01/22 10:37:07;;;;;;;50.58;31.50;;;-0.60;99.90;;;;;;5074232;28;20041;-54
2023/01/22 10:39:34;;;;;;;52.63;32.45;;;-0.50;99.90;;;;;;5055115;28;20049;-46
2023/01/22 10:42:00;;;;;;;47.28;30.25;;;-0.50;99.90;;;;;;5055186;28;20446;-51
2023/01/22 10:44:27;;;;;;;48.35;32.13;;;-0.40;99.90;;;;;;5054192;28;20041;-48
2023/01/22 10:46:54;;;;;;;53.63;34.95;;;-0.30;99.90;;;;;;5054903;28;20381;-48
2023/01/22 10:49:21;;;;;;;53.47;34.75;;;-0.30;99.90;;;;;;5054133;28;20052;-49
2023/01/22 10:51:47;;;;;;;52.78;36.78;;;-0.20;99.90;;;;;;5054283;28;20415;-47
2023/01/22 10:54:14;;;;;;;56.50;36.65;;;-0.20;99.90;;;;;;5054667;28;20049;-52
2023/01/22 10:56:41;;;;;;;59.83;37.70;;;-0.10;99.90;;;;;;5054048;28;20033;-52
2023/01/22 10:59:08;;;;;;;57.45;37.50;;;0.00;99.90;;;;;;5052822;28;20053;-51
2023/01/22 11:01:35;;;;;;;58.72;40.10;;;0.00;99.90;;;;;;5054640;28;20430;-48
2023/01/22 11:04:01;;;;;;;55.08;39.50;;;0.10;99.90;;;;;;5053935;28;20044;-49
2023/01/22 11:06:28;;;;;;;55.17;35.38;;;0.20;99.90;;;;;;5053746;28;20515;-49
2023/01/22 11:08:55;;;;;;;51.67;34.03;;;0.30;99.90;;;;;;5054460;28;20451;-49
2023/01/22 11:11:22;;;;;;;51.10;34.58;;;0.30;99.90;;;;;;5054284;28;20455;-50
2023/01/22 11:13:49;;;;;;;50.30;34.22;;;0.40;99.90;;;;;;5053206;28;20037;-52
2023/01/22 11:16:15;;;;;;;49.67;35.00;;;0.40;99.90;;;;;;5052208;28;20071;-49
2023/01/22 11:18:42;;;;;;;50.78;34.33;;;0.50;99.90;;;;;;5052298;28;20041;-48
2023/01/22 11:21:09;;;;;;;49.70;35.40;;;0.60;99.90;;;;;;5054330;28;20045;-50
2023/01/22 11:23:36;;;;;;;57.00;37.05;;;0.60;99.90;;;;;;5053797;28;20044;-50
2023/01/22 11:26:02;;;;;;;54.63;38.92;;;0.70;99.90;;;;;;5053923;28;20542;-50
2023/01/22 11:28:29;;;;;;;53.30;37.58;;;0.80;99.90;;;;;;5052980;28;20165;-49
2023/01/22 11:30:56;;;;;;;57.65;38.95;;;0.90;99.90;;;;;;5053646;28;20052;-49
2023/01/22 11:33:23;;;;;;;52.78;35.92;;;1.00;99.90;;;;;;5054058;28;20045;-49
2023/01/22 11:35:50;;;;;;;50.80;35.83;;;1.10;99.90;;;;;;5053871;28;20373;-50
2023/01/22 11:38:16;;;;;;;53.40;37.35;;;1.10;99.90;;;;;;5053414;28;20123;-49
2023/01/22 11:40:43;;;;;;;52.85;36.13;;;1.20;99.90;;;;;;5054080;28;20091;-51
2023/01/22 11:43:10;;;;;;;50.00;35.50;;;1.30;99.90;;;;;;5053134;28;20060;-52
2023/01/22 11:45:36;;;;;;;50.60;35.67;;;1.30;99.90;;;;;;5054083;28;20502;-53
2023/01/22 11:48:03;;;;;;;49.75;34.00;;;1.30;99.90;;;;;;5051067;28;20043;-52
2023/01/22 11:50:30;;;;;;;52.47;33.88;;;1.40;99.90;;;;;;5052529;28;20072;-51
2023/01/22 11:52:57;;;;;;;44.17;31.88;;;1.40;99.90;;;;;;5050918;28;20526;-49
2023/01/22 11:55:23;;;;;;;48.60;32.63;;;1.50;99.90;;;;;;5053025;28;20044;-54
2023/01/22 11:57:50;;;;;;;50.30;31.83;;;1.60;99.90;;;;;;5060036;28;20048;-52
2023/01/22 12:00:17;;;;;;;47.20;31.10;;;1.70;99.90;;;;;;5053175;28;20435;-49
2023/01/22 12:02:44;;;;;;;41.33;29.88;;;1.70;99.90;;;;;;5053751;28;20051;-47
2023/01/22 12:05:11;;;;;;;44.30;29.77;;;1.80;99.90;;;;;;5053453;28;20102;-51
2023/01/22 12:07:37;;;;;;;41.53;26.23;;;1.80;99.90;;;;;;5052716;28;20075;-47
2023/01/22 12:10:04;;;;;;;45.13;28.27;;;1.90;99.90;;;;;;5053625;28;20049;-48
2023/01/22 12:12:31;;;;;;;42.67;29.20;;;2.00;99.90;;;;;;5052984;28;20369;-52
2023/01/22 12:14:58;;;;;;;33.13;22.77;;;2.00;99.90;;;;;;5051936;28;20041;-47
2023/01/22 12:17:25;;;;;;;24.83;17.17;;;2.10;99.90;;;;;;5053570;28;20131;-51
2023/01/22 12:19:51;;;;;;;34.97;23.75;;;2.20;99.90;;;;;;5052882;28;20129;-53
2023/01/22 12:22:18;;;;;;;34.85;22.80;;;2.20;99.90;;;;;;5052652;28;20520;-52
2023/01/22 12:24:45;;;;;;;32.53;22.83;;;2.30;99.90;;;;;;5053275;28;20045;-52
2023/01/22 12:27:11;;;;;;;29.27;20.50;;;2.40;99.90;;;;;;5054750;28;20052;-52
2023/01/22 12:29:38;;;;;;;33.38;22.25;;;2.50;99.90;;;;;;5057363;28;20041;-53
2023/01/22 12:32:07;;;;;;;32.88;22.20;;;2.60;99.90;;;;;;5063213;28;20116;-50
2023/01/22 12:34:34;;;;;;;33.55;23.63;;;2.60;99.90;;;;;;5050707;28;20491;-48
2023/01/22 12:37:01;;;;;;;33.30;22.98;;;2.70;99.90;;;;;;5056059;28;20088;-54